createdAt,value
2023-05-01T00:02:17.896Z,100711.31
2023-05-01T00:04:47.153Z,100710.20
2023-05-01T00:07:16.984Z,100703.73
2023-05-01T00:09:46.369Z,100704.02
2023-05-01T00:12:15.063Z,100698.48
2023-05-01T00:14:44.306Z,100703.75
2023-05-01T00:17:13.253Z,100702.60
2023-05-01T00:19:41.943Z,100700.70
2023-05-01T00:22:10.834Z,100700.58
2023-05-01T00:24:39.606Z,100698.30
2023-05-01T00:27:09.215Z,100699.84
2023-05-01T00:29:38.537Z,100695.96
2023-05-01T00:32:07.954Z,100692.45
2023-05-01T00:34:36.504Z,100694.37
2023-05-01T00:37:05.505Z,100691.35
2023-05-01T00:39:35.138Z,100685.11
2023-05-01T00:42:04.311Z,100686.48
2023-05-01T00:44:33.094Z,100688.39
2023-05-01T00:47:02.829Z,100688.89
2023-05-01T00:49:31.804Z,100690.58
2023-05-01T00:52:00.486Z,100686.62
2023-05-01T00:54:29.591Z,100682.69
2023-05-01T00:56:59.282Z,100681.36
2023-05-01T00:59:28.589Z,100686.60
2023-05-01T01:01:57.268Z,100677.89
2023-05-01T01:04:29.274Z,100676.76
2023-05-01T01:07:26.185Z,100676.27
2023-05-01T01:09:57.890Z,100678.05
2023-05-01T01:12:39.223Z,100679.77
2023-05-01T01:15:27.575Z,100681.02
2023-05-01T01:18:09.965Z,100677.55
2023-05-01T01:21:11.455Z,100680.38
2023-05-01T01:24:02.330Z,100682.64
2023-05-01T01:26:52.113Z,100679.16
2023-05-01T01:29:48.662Z,100675.68
2023-05-01T01:32:42.567Z,100671.27
2023-05-01T01:35:21.773Z,100675.32
2023-05-01T01:37:58.558Z,100668.87
2023-05-01T01:40:34.691Z,100669.58
2023-05-01T01:43:06.245Z,100668.74
2023-05-01T01:45:44.162Z,100665.84
2023-05-01T01:48:18.031Z,100660.78
2023-05-01T01:50:47.877Z,100659.13
2023-05-01T01:53:18.789Z,100663.38
2023-05-01T01:55:48.719Z,100663.88
2023-05-01T01:58:17.925Z,100658.92
2023-05-01T02:00:48.144Z,100661.25
2023-05-01T02:03:18.316Z,100666.34
2023-05-01T02:05:47.671Z,100657.39
2023-05-01T02:08:17.694Z,100652.94
2023-05-01T02:10:48.223Z,100657.29
2023-05-01T02:13:17.924Z,100656.01
2023-05-01T02:15:47.548Z,100653.59
2023-05-01T02:18:16.807Z,100646.13
2023-05-01T02:20:45.926Z,100644.34
2023-05-01T02:23:15.425Z,100644.75
2023-05-01T02:25:45.470Z,100641.92
2023-05-01T02:28:16.496Z,100643.95
2023-05-01T02:30:47.608Z,100646.30
2023-05-01T02:33:16.744Z,100641.00
2023-05-01T02:35:48.401Z,100638.38
2023-05-01T02:38:18.105Z,100634.79
2023-05-01T02:40:51.237Z,100635.81
2023-05-01T02:43:21.928Z,100635.19
2023-05-01T02:45:51.998Z,100637.91
2023-05-01T02:48:24.358Z,100636.17
2023-05-01T02:50:54.403Z,100634.55
2023-05-01T02:53:23.325Z,100638.07
2023-05-01T02:55:55.105Z,100629.67
2023-05-01T02:58:24.275Z,100630.04
2023-05-01T03:00:52.993Z,100629.35
2023-05-01T03:03:23.142Z,100630.41
2023-05-01T03:05:52.673Z,100624.53
2023-05-01T03:08:21.354Z,100626.25
2023-05-01T03:10:51.625Z,100630.91
2023-05-01T03:13:20.488Z,100625.69
2023-05-01T03:15:49.994Z,100625.70
2023-05-01T03:18:18.903Z,100623.83
2023-05-01T03:20:57.370Z,100619.17
2023-05-01T03:23:26.681Z,100618.92
2023-05-01T03:25:55.266Z,100617.90
2023-05-01T03:28:24.463Z,100620.58
2023-05-01T03:30:53.977Z,100616.98
2023-05-01T03:33:23.255Z,100615.84
2023-05-01T03:36:01.126Z,100615.85
2023-05-01T03:38:31.084Z,100614.23
2023-05-01T03:41:11.971Z,100618.10
2023-05-01T03:43:46.978Z,100622.29
2023-05-01T03:46:33.433Z,100621.16
2023-05-01T03:49:02.574Z,100623.75
2023-05-01T03:51:33.408Z,100621.12
2023-05-01T03:54:02.341Z,100619.08
2023-05-01T03:56:37.028Z,100613.06
2023-05-01T03:59:07.064Z,100612.70
2023-05-01T04:01:35.964Z,100616.08
2023-05-01T04:04:05.153Z,100614.16
2023-05-01T04:06:34.567Z,100610.34
2023-05-01T04:09:03.938Z,100607.19
2023-05-01T04:11:32.748Z,100610.97
2023-05-01T04:14:01.926Z,100615.30
2023-05-01T04:16:31.157Z,100609.60
2023-05-01T04:19:01.367Z,100609.10
2023-05-01T04:21:32.198Z,100606.21
2023-05-01T04:24:01.175Z,100602.91
2023-05-01T04:26:31.406Z,100597.92
2023-05-01T04:29:02.710Z,100599.94
2023-05-01T04:31:31.892Z,100604.23
2023-05-01T04:34:00.728Z,100603.64
2023-05-01T04:36:30.150Z,100599.10
2023-05-01T04:38:58.814Z,100596.20
2023-05-01T04:41:29.180Z,100597.00
2023-05-01T04:43:57.849Z,100598.26
2023-05-01T04:46:26.838Z,100598.80
2023-05-01T04:48:55.825Z,100600.64
2023-05-01T04:51:24.505Z,100602.34
2023-05-01T04:53:54.619Z,100605.40
2023-05-01T04:56:26.193Z,100601.45
2023-05-01T04:58:57.740Z,100601.94
2023-05-01T05:01:27.982Z,100604.98
2023-05-01T05:03:57.313Z,100606.64
2023-05-01T05:06:26.700Z,100605.59
2023-05-01T05:08:57.513Z,100601.88
2023-05-01T05:11:26.914Z,100603.30
2023-05-01T05:14:12.900Z,100599.33
2023-05-01T05:16:42.205Z,100596.16
2023-05-01T05:19:12.297Z,100600.69
2023-05-01T05:21:43.045Z,100598.67
2023-05-01T05:24:12.551Z,100598.90
2023-05-01T05:26:41.965Z,100594.79
2023-05-01T05:29:11.147Z,100588.30
2023-05-01T05:31:40.099Z,100587.92
2023-05-01T05:34:09.224Z,100588.30
2023-05-01T05:36:38.422Z,100584.02
2023-05-01T05:39:07.529Z,100580.55
2023-05-01T05:41:37.147Z,100580.71
2023-05-01T05:44:06.335Z,100581.80
2023-05-01T05:46:35.416Z,100580.02
2023-05-01T05:49:04.221Z,100579.35
2023-05-01T05:51:33.527Z,100574.48
2023-05-01T05:54:03.220Z,100578.13
2023-05-01T05:56:32.523Z,100576.33
2023-05-01T05:59:04.283Z,100576.00
2023-05-01T06:01:33.583Z,100576.44
2023-05-01T06:04:02.894Z,100577.16
2023-05-01T06:06:32.768Z,100574.84
2023-05-01T06:09:02.984Z,100576.82
2023-05-01T06:11:32.827Z,100575.31
2023-05-01T06:14:04.058Z,100572.98
2023-05-01T06:16:34.583Z,100576.70
2023-05-01T06:19:04.830Z,100571.45
2023-05-01T06:21:36.395Z,100571.41
2023-05-01T06:24:06.563Z,100571.15
2023-05-01T06:26:44.314Z,100574.83
2023-05-01T06:29:13.410Z,100574.28
2023-05-01T06:31:42.775Z,100569.18
2023-05-01T06:34:12.224Z,100568.09
2023-05-01T06:36:59.616Z,100568.06
2023-05-01T06:39:28.801Z,100565.95
2023-05-01T06:41:57.913Z,100564.02
2023-05-01T06:44:36.649Z,100559.54
2023-05-01T06:47:06.030Z,100559.67
2023-05-01T06:49:34.822Z,100557.30
2023-05-01T06:52:04.438Z,100562.88
2023-05-01T06:54:33.125Z,100558.25
2023-05-01T06:57:02.100Z,100555.64
2023-05-01T06:59:32.020Z,100554.90
2023-05-01T07:02:01.149Z,100551.15
2023-05-01T07:04:29.822Z,100546.77
2023-05-01T07:06:58.580Z,100549.98
2023-05-01T07:09:27.574Z,100538.86
2023-05-01T07:11:58.960Z,100537.23
2023-05-01T07:14:28.227Z,100538.19
2023-05-01T07:16:57.441Z,100533.11
2023-05-01T07:19:26.626Z,100533.39
2023-05-01T07:21:55.727Z,100533.13
2023-05-01T07:24:24.507Z,100532.15
2023-05-01T07:26:53.306Z,100530.83
2023-05-01T07:29:22.186Z,100526.92
2023-05-01T07:31:51.020Z,100525.94
2023-05-01T07:34:20.065Z,100525.95
2023-05-01T07:36:48.966Z,100527.52
2023-05-01T07:39:18.529Z,100526.71
2023-05-01T07:41:48.085Z,100521.70
2023-05-01T07:44:17.291Z,100527.69
2023-05-01T07:46:46.066Z,100523.73
2023-05-01T07:49:14.937Z,100526.94
2023-05-01T07:51:45.327Z,100522.56
2023-05-01T07:54:16.603Z,100515.98
2023-05-01T07:56:46.354Z,100515.98
2023-05-01T07:59:16.746Z,100519.90
2023-05-01T08:01:52.003Z,100518.09
2023-05-01T08:04:28.998Z,100515.63
2023-05-01T08:06:58.994Z,100518.94
2023-05-01T08:09:29.101Z,100514.58
2023-05-01T08:11:58.103Z,100512.38
2023-05-01T08:14:26.884Z,100514.47
2023-05-01T08:16:56.295Z,100510.02
2023-05-01T08:19:25.802Z,100513.18
2023-05-01T08:21:55.972Z,100507.22
2023-05-01T08:24:24.889Z,100506.15
2023-05-01T08:26:53.964Z,100497.70
2023-05-01T08:29:23.412Z,100494.77
2023-05-01T08:31:53.067Z,100492.27
2023-05-01T08:34:23.170Z,100499.36
2023-05-01T08:36:52.437Z,100497.60
2023-05-01T08:39:22.162Z,100493.28
2023-05-01T08:41:51.647Z,100494.98
2023-05-01T08:44:26.035Z,100488.13
2023-05-01T08:47:03.319Z,100491.44
2023-05-01T08:49:35.147Z,100485.66
2023-05-01T08:52:05.107Z,100484.36
2023-05-01T08:54:34.271Z,100475.48
2023-05-01T08:57:08.904Z,100478.30
2023-05-01T08:59:40.086Z,100480.06
2023-05-01T09:02:10.390Z,100471.66
2023-05-01T09:04:41.353Z,100474.98
2023-05-01T09:07:13.434Z,100466.23
2023-05-01T09:09:42.214Z,100460.40
2023-05-01T09:12:26.651Z,100463.60
2023-05-01T09:14:56.684Z,100455.54
2023-05-01T09:17:26.000Z,100453.27
2023-05-01T09:19:54.831Z,100450.56
2023-05-01T09:22:24.276Z,100447.65
2023-05-01T09:24:52.968Z,100446.04
2023-05-01T09:27:21.764Z,100445.93
2023-05-01T09:29:50.497Z,100442.96
2023-05-01T09:32:26.276Z,100444.90
2023-05-01T09:34:56.337Z,100441.05
2023-05-01T09:37:27.989Z,100442.66
2023-05-01T09:40:02.801Z,100440.16
2023-05-01T09:42:35.584Z,100441.31
2023-05-01T09:45:13.766Z,100437.02
2023-05-01T09:47:44.933Z,100436.63
2023-05-01T09:50:33.916Z,100441.41
2023-05-01T09:53:05.127Z,100427.16
2023-05-01T09:55:34.742Z,100425.59
2023-05-01T09:58:04.126Z,100423.86
2023-05-01T10:00:33.867Z,100422.61
2023-05-01T10:03:14.894Z,100414.36
2023-05-01T10:05:44.875Z,100413.10
2023-05-01T10:08:16.997Z,100409.96
2023-05-01T10:11:00.966Z,100407.27
2023-05-01T10:13:30.627Z,100399.81
2023-05-01T10:16:01.968Z,100397.75
2023-05-01T10:18:31.308Z,100395.20
2023-05-01T10:21:00.110Z,100388.70
2023-05-01T10:23:29.807Z,100386.12
2023-05-01T10:26:00.847Z,100385.04
2023-05-01T10:28:31.186Z,100376.71
2023-05-01T10:30:59.896Z,100376.11
2023-05-01T10:33:29.028Z,100371.91
2023-05-01T10:36:00.209Z,100371.52
2023-05-01T10:38:37.008Z,100372.52
2023-05-01T10:41:07.098Z,100363.30
2023-05-01T10:43:35.788Z,100370.09
2023-05-01T10:46:10.371Z,100370.05
2023-05-01T10:48:45.351Z,100362.93
2023-05-01T10:51:17.671Z,100355.49
2023-05-01T10:53:47.842Z,100354.44
2023-05-01T10:56:25.724Z,100351.31
2023-05-01T10:58:56.353Z,100346.95
2023-05-01T11:01:48.281Z,100342.30
2023-05-01T11:04:20.034Z,100336.39
2023-05-01T11:07:08.832Z,100330.73
2023-05-01T11:09:46.504Z,100333.10
2023-05-01T11:12:16.951Z,100333.03
2023-05-01T11:14:55.122Z,100326.92
2023-05-01T11:17:42.667Z,100322.41
2023-05-01T11:20:12.261Z,100324.20
2023-05-01T11:22:46.724Z,100321.77
2023-05-01T11:25:23.632Z,100316.87
2023-05-01T11:27:55.320Z,100311.34
2023-05-01T11:30:24.534Z,100306.33
2023-05-01T11:32:53.755Z,100293.48
2023-05-01T11:35:27.615Z,100290.58
2023-05-01T11:37:57.665Z,100286.42
2023-05-01T11:40:31.724Z,100280.83
2023-05-01T11:43:05.290Z,100281.00
2023-05-01T11:45:39.201Z,100277.50
2023-05-01T11:48:16.396Z,100266.35
2023-05-01T11:50:45.137Z,100269.20
2023-05-01T11:53:18.987Z,100263.11
2023-05-01T11:55:47.723Z,100258.91
2023-05-01T11:58:16.332Z,100263.49
2023-05-01T12:00:45.330Z,100260.67
2023-05-01T12:03:15.527Z,100256.81
2023-05-01T12:05:46.064Z,100253.27
2023-05-01T12:08:23.656Z,100251.11
2023-05-01T12:10:58.020Z,100242.54
2023-05-01T12:13:27.732Z,100237.88
2023-05-01T12:15:57.593Z,100242.94
2023-05-01T12:18:26.540Z,100245.79
2023-05-01T12:20:55.893Z,100240.14
2023-05-01T12:23:33.283Z,100237.48
2023-05-01T12:26:03.748Z,100234.82
2023-05-01T12:28:32.675Z,100230.34
2023-05-01T12:31:05.517Z,100229.86
2023-05-01T12:33:34.570Z,100224.55
2023-05-01T12:36:11.998Z,100223.30
2023-05-01T12:38:40.750Z,100212.52
2023-05-01T12:41:12.489Z,100205.37
2023-05-01T12:43:42.413Z,100198.85
2023-05-01T12:46:15.251Z,100202.32
2023-05-01T12:48:43.882Z,100195.77
2023-05-01T12:51:21.782Z,100192.73
2023-05-01T12:53:52.086Z,100181.35
2023-05-01T12:56:26.336Z,100174.52
2023-05-01T12:58:56.031Z,100170.59
2023-05-01T13:01:29.297Z,100169.42
2023-05-01T13:03:59.471Z,100157.52
2023-05-01T13:06:34.282Z,100153.42
2023-05-01T13:09:10.652Z,100157.73
2023-05-01T13:11:39.435Z,100153.98
2023-05-01T13:14:12.820Z,100150.77
2023-05-01T13:16:47.015Z,100148.80
2023-05-01T13:19:27.161Z,100143.60
2023-05-01T13:21:59.031Z,100133.00
2023-05-01T13:24:46.585Z,100130.77
2023-05-01T13:27:15.395Z,100121.09
2023-05-01T13:29:53.319Z,100125.69
2023-05-01T13:32:21.949Z,100119.25
2023-05-01T13:34:51.267Z,100116.94
2023-05-01T13:37:21.595Z,100112.36
2023-05-01T13:39:50.429Z,100107.84
2023-05-01T13:42:24.434Z,100103.58
2023-05-01T13:44:57.250Z,100098.61
2023-05-01T13:47:27.236Z,100099.92
2023-05-01T13:49:56.441Z,100095.86
2023-05-01T13:52:25.357Z,100091.16
2023-05-01T13:54:56.878Z,100085.52
2023-05-01T13:57:25.814Z,100085.06
2023-05-01T13:59:54.584Z,100079.31
2023-05-01T14:02:30.171Z,100075.73
2023-05-01T14:05:00.790Z,100076.75
2023-05-01T14:07:30.068Z,100072.81
2023-05-01T14:10:00.381Z,100068.63
2023-05-01T14:12:31.021Z,100067.75
2023-05-01T14:15:01.859Z,100067.59
2023-05-01T14:17:33.168Z,100056.63
2023-05-01T14:20:02.912Z,100054.58
2023-05-01T14:22:44.020Z,100052.16
2023-05-01T14:25:23.530Z,100045.65
2023-05-01T14:27:53.864Z,100043.23
2023-05-01T14:30:30.312Z,100041.27
2023-05-01T14:32:58.841Z,100033.77
2023-05-01T14:35:28.110Z,100031.08
2023-05-01T14:37:58.029Z,100026.16
2023-05-01T14:40:28.090Z,100021.64
2023-05-01T14:42:58.391Z,100017.92
2023-05-01T14:45:27.553Z,100016.49
2023-05-01T14:47:56.373Z,100013.06
2023-05-01T14:50:28.467Z,100009.75
2023-05-01T14:52:59.328Z,100009.25
2023-05-01T14:55:34.974Z,100012.79
2023-05-01T14:58:04.100Z,100009.14
2023-05-01T15:00:32.829Z,100010.55
2023-05-01T15:03:02.083Z,100004.43
2023-05-01T15:05:31.724Z,100001.11
2023-05-01T15:08:04.684Z,100001.21
2023-05-01T15:10:34.505Z,99995.19
2023-05-01T15:13:03.288Z,99992.92
2023-05-01T15:15:32.102Z,99992.45
2023-05-01T15:18:00.995Z,99997.33
2023-05-01T15:20:30.477Z,99993.95
2023-05-01T15:22:59.068Z,99995.48
2023-05-01T15:25:27.842Z,99990.64
2023-05-01T15:27:57.694Z,99988.34
2023-05-01T15:30:26.236Z,99990.45
2023-05-01T15:32:56.467Z,99983.02
2023-05-01T15:35:26.604Z,99981.84
2023-05-01T15:37:57.236Z,99976.13
2023-05-01T15:40:25.807Z,99970.40
2023-05-01T15:42:54.904Z,99970.98
2023-05-01T15:45:23.865Z,99965.85
2023-05-01T15:47:52.608Z,99963.39
2023-05-01T15:50:22.176Z,99959.01
2023-05-01T15:52:53.116Z,99959.91
2023-05-01T15:55:22.437Z,99955.82
2023-05-01T15:57:51.536Z,99957.72
2023-05-01T16:00:22.182Z,99956.38
2023-05-01T16:02:51.137Z,99954.64
2023-05-01T16:05:23.613Z,99950.73
2023-05-01T16:07:55.677Z,99947.30
2023-05-01T16:10:25.996Z,99948.45
2023-05-01T16:12:54.802Z,99947.02
2023-05-01T16:15:23.777Z,99946.65
2023-05-01T16:17:55.248Z,99942.46
2023-05-01T16:20:24.437Z,99940.83
2023-05-01T16:22:53.207Z,99939.98
2023-05-01T16:25:22.505Z,99934.77
2023-05-01T16:27:52.528Z,99937.88
2023-05-01T16:30:25.555Z,99938.20
2023-05-01T16:32:54.468Z,99936.06
2023-05-01T16:35:27.936Z,99936.27
2023-05-01T16:37:57.008Z,99935.05
2023-05-01T16:40:25.883Z,99929.34
2023-05-01T16:42:55.084Z,99931.46
2023-05-01T16:45:23.747Z,99928.38
2023-05-01T16:47:52.390Z,99924.38
2023-05-01T16:50:23.090Z,99928.15
2023-05-01T16:52:55.346Z,99926.79
2023-05-01T16:55:25.330Z,99927.91
2023-05-01T16:57:54.794Z,99927.06
2023-05-01T17:00:23.997Z,99926.16
2023-05-01T17:02:55.424Z,99925.54
2023-05-01T17:05:24.223Z,99924.42
2023-05-01T17:07:53.315Z,99923.73
2023-05-01T17:10:22.405Z,99922.20
2023-05-01T17:12:51.624Z,99921.98
2023-05-01T17:15:20.803Z,99917.27
2023-05-01T17:17:49.920Z,99917.02
2023-05-01T17:20:19.999Z,99912.64
2023-05-01T17:22:49.102Z,99912.17
2023-05-01T17:25:18.233Z,99909.04
2023-05-01T17:27:46.767Z,99908.56
2023-05-01T17:30:16.174Z,99907.68
2023-05-01T17:32:45.383Z,99910.69
2023-05-01T17:35:17.759Z,99912.00
2023-05-01T17:37:46.752Z,99910.89
2023-05-01T17:40:16.887Z,99907.88
2023-05-01T17:42:46.161Z,99910.21
2023-05-01T17:45:15.780Z,99908.73
2023-05-01T17:47:47.624Z,99911.52
2023-05-01T17:50:16.541Z,99910.38
2023-05-01T17:52:46.631Z,99908.11
2023-05-01T17:55:18.203Z,99909.58
2023-05-01T17:57:48.114Z,99907.37
2023-05-01T18:00:18.581Z,99909.11
2023-05-01T18:02:49.558Z,99909.75
2023-05-01T18:05:18.807Z,99914.36
2023-05-01T18:07:49.105Z,99913.83
2023-05-01T18:10:18.448Z,99913.87
2023-05-01T18:12:51.728Z,99916.75
2023-05-01T18:15:22.986Z,99918.03
2023-05-01T18:17:53.235Z,99920.13
2023-05-01T18:20:24.118Z,99920.91
2023-05-01T18:22:54.778Z,99922.14
2023-05-01T18:25:24.796Z,99928.59
2023-05-01T18:27:56.746Z,99930.57
2023-05-01T18:30:30.945Z,99929.23
2023-05-01T18:33:01.303Z,99929.29
2023-05-01T18:35:33.716Z,99933.11
2023-05-01T18:38:03.140Z,99933.99
2023-05-01T18:40:33.345Z,99932.77
2023-05-01T18:43:05.616Z,99930.40
2023-05-01T18:45:35.839Z,99934.96
2023-05-01T18:48:07.021Z,99933.83
2023-05-01T18:50:38.784Z,99936.91
2023-05-01T18:53:09.665Z,99937.20
2023-05-01T18:55:39.229Z,99940.98
2023-05-01T18:58:09.396Z,99941.42
2023-05-01T19:00:40.767Z,99945.73
2023-05-01T19:03:15.478Z,99944.00
2023-05-01T19:05:46.200Z,99945.93
2023-05-01T19:08:16.985Z,99939.64
2023-05-01T19:10:47.051Z,99942.73
2023-05-01T19:13:18.520Z,99939.42
2023-05-01T19:15:48.959Z,99940.79
2023-05-01T19:18:18.557Z,99940.46
2023-05-01T19:20:48.699Z,99941.06
2023-05-01T19:23:23.056Z,99942.39
2023-05-01T19:26:01.605Z,99942.40
2023-05-01T19:28:38.460Z,99944.55
2023-05-01T19:31:14.567Z,99942.59
2023-05-01T19:33:54.279Z,99944.80
2023-05-01T19:36:29.744Z,99946.92
2023-05-01T19:39:08.186Z,99942.58
2023-05-01T19:41:42.212Z,99944.29
2023-05-01T19:44:19.086Z,99945.85
2023-05-01T19:46:53.442Z,99940.42
2023-05-01T19:49:27.482Z,99946.83
2023-05-01T19:52:04.673Z,99950.57
2023-05-01T19:54:45.918Z,99950.71
2023-05-01T19:57:19.457Z,99950.15
2023-05-01T19:59:50.809Z,99950.77
2023-05-01T20:02:24.488Z,99949.84
2023-05-01T20:04:58.219Z,99949.16
2023-05-01T20:07:34.620Z,99953.51
2023-05-01T20:10:09.286Z,99953.02
2023-05-01T20:12:41.660Z,99948.34
2023-05-01T20:15:12.398Z,99944.63
2023-05-01T20:17:42.620Z,99941.57
2023-05-01T20:20:11.817Z,99943.07
2023-05-01T20:22:41.097Z,99943.55
2023-05-01T20:25:11.108Z,99943.42
2023-05-01T20:27:41.122Z,99936.14
2023-05-01T20:30:12.068Z,99931.02
2023-05-01T20:32:44.976Z,99934.45
2023-05-01T20:35:14.698Z,99934.23
2023-05-01T20:37:43.648Z,99929.67
2023-05-01T20:40:13.377Z,99935.17
2023-05-01T20:42:43.586Z,99935.58
2023-05-01T20:45:13.089Z,99940.44
2023-05-01T20:47:42.033Z,99942.52
2023-05-01T20:50:11.687Z,99937.23
2023-05-01T20:52:40.823Z,99939.55
2023-05-01T20:55:10.193Z,99935.77
2023-05-01T20:57:40.636Z,99940.02
2023-05-01T21:00:09.940Z,99936.51
2023-05-01T21:02:39.631Z,99936.09
2023-05-01T21:05:12.540Z,99935.19
2023-05-01T21:07:41.615Z,99933.39
2023-05-01T21:10:11.292Z,99934.44
2023-05-01T21:12:45.220Z,99932.06
2023-05-01T21:15:15.340Z,99933.83
2023-05-01T21:17:44.211Z,99932.50
2023-05-01T21:20:17.136Z,99932.73
2023-05-01T21:22:46.602Z,99931.45
2023-05-01T21:25:20.199Z,99932.62
2023-05-01T21:27:48.682Z,99935.08
2023-05-01T21:30:37.750Z,99936.21
2023-05-01T21:33:08.929Z,99936.98
2023-05-01T21:35:42.287Z,99936.06
2023-05-01T21:38:11.522Z,99937.46
2023-05-01T21:40:43.749Z,99942.36
2023-05-01T21:43:15.523Z,99937.64
2023-05-01T21:45:50.307Z,99941.28
2023-05-01T21:48:20.212Z,99940.47
2023-05-01T21:50:50.444Z,99942.30
2023-05-01T21:53:20.134Z,99940.84
2023-05-01T21:55:49.301Z,99939.69
2023-05-01T21:58:18.192Z,99942.84
2023-05-01T22:00:47.225Z,99942.05
2023-05-01T22:03:18.464Z,99939.80
2023-05-01T22:05:47.211Z,99942.73
2023-05-01T22:08:15.907Z,99946.93
2023-05-01T22:10:45.792Z,99948.52
2023-05-01T22:13:14.425Z,99948.92
2023-05-01T22:15:43.281Z,99948.67
2023-05-01T22:18:18.394Z,99949.63
2023-05-01T22:20:52.676Z,99947.02
2023-05-01T22:23:27.918Z,99944.34
2023-05-01T22:26:01.052Z,99941.24
2023-05-01T22:28:34.526Z,99940.92
2023-05-01T22:31:07.498Z,99942.29
2023-05-01T22:33:38.094Z,99939.06
2023-05-01T22:36:07.576Z,99936.84
2023-05-01T22:38:36.870Z,99934.38
2023-05-01T22:41:06.477Z,99930.09
2023-05-01T22:43:35.188Z,99922.64
2023-05-01T22:46:06.265Z,99924.64
2023-05-01T22:48:35.220Z,99914.70
2023-05-01T22:51:04.408Z,99915.86
2023-05-01T22:53:33.219Z,99914.50
2023-05-01T22:56:02.091Z,99918.08
2023-05-01T22:58:30.895Z,99920.70
2023-05-01T23:00:59.879Z,99919.64
2023-05-01T23:03:34.574Z,99918.59
2023-05-01T23:06:08.099Z,99921.25
2023-05-01T23:08:42.356Z,99922.54
2023-05-01T23:11:22.142Z,99922.17
2023-05-01T23:13:56.693Z,99926.67
2023-05-01T23:16:28.294Z,99921.11
2023-05-01T23:19:01.368Z,99919.05
2023-05-01T23:21:34.043Z,99917.23
2023-05-01T23:24:06.637Z,99913.55
2023-05-01T23:26:42.540Z,99914.31
2023-05-01T23:29:18.308Z,99912.55
2023-05-01T23:31:50.266Z,99907.71
2023-05-01T23:34:20.239Z,99905.13
2023-05-01T23:36:49.083Z,99903.23
2023-05-01T23:39:18.538Z,99902.17
2023-05-01T23:41:47.648Z,99897.88
2023-05-01T23:44:16.731Z,99901.79
2023-05-01T23:46:45.556Z,99899.54
2023-05-01T23:49:14.425Z,99900.61
2023-05-01T23:51:45.564Z,99899.11
2023-05-01T23:54:14.243Z,99894.99
2023-05-01T23:56:43.343Z,99892.64
2023-05-01T23:59:12.543Z,99891.81
